createdAt,value
2023-05-06T00:01:56.299Z,100985.25
2023-05-06T00:04:24.470Z,100982.03
2023-05-06T00:06:52.816Z,100985.09
2023-05-06T00:09:21.096Z,100986.25
2023-05-06T00:11:48.980Z,100989.28
2023-05-06T00:14:16.843Z,100986.72
2023-05-06T00:16:46.090Z,100991.81
2023-05-06T00:19:13.861Z,100992.59
2023-05-06T00:21:41.571Z,100990.22
2023-05-06T00:24:09.409Z,101002.50
2023-05-06T00:26:37.066Z,100996.84
2023-05-06T00:29:04.738Z,100995.59
2023-05-06T00:31:32.429Z,100994.19
2023-05-06T00:34:01.490Z,100993.34
2023-05-06T00:36:30.046Z,100989.53
2023-05-06T00:38:57.731Z,100983.59
2023-05-06T00:41:25.435Z,100985.84
2023-05-06T00:43:53.102Z,100985.50
2023-05-06T00:46:20.892Z,100982.09
2023-05-06T00:48:48.705Z,100978.88
2023-05-06T00:51:17.765Z,100974.63
2023-05-06T00:53:46.727Z,100981.16
2023-05-06T00:56:14.448Z,100974.16
2023-05-06T00:58:42.319Z,100968.28
2023-05-06T01:01:10.097Z,100964.13
2023-05-06T01:03:38.123Z,100963.38
2023-05-06T01:06:14.548Z,100962.78
2023-05-06T01:08:49.122Z,100954.28
2023-05-06T01:11:21.555Z,100951.91
2023-05-06T01:13:51.406Z,100955.31
2023-05-06T01:16:21.607Z,100949.75
2023-05-06T01:18:50.664Z,100941.97
2023-05-06T01:21:19.924Z,100943.03
2023-05-06T01:23:58.931Z,100950.03
2023-05-06T01:26:27.262Z,100944.53
2023-05-06T01:28:55.479Z,100945.47
2023-05-06T01:31:27.177Z,100945.38
2023-05-06T01:34:06.909Z,100948.97
2023-05-06T01:36:40.163Z,100944.03
2023-05-06T01:39:13.726Z,100947.81
2023-05-06T01:41:42.048Z,100942.75
2023-05-06T01:44:10.253Z,100939.16
2023-05-06T01:46:37.970Z,100955.03
2023-05-06T01:49:08.125Z,100958.84
2023-05-06T01:51:35.920Z,100961.75
2023-05-06T01:54:03.825Z,100962.41
2023-05-06T01:56:33.371Z,100965.53
2023-05-06T01:59:01.156Z,100961.00
2023-05-06T02:01:28.839Z,100958.25
2023-05-06T02:04:58.570Z,100967.88
2023-05-06T02:07:26.207Z,100967.31
2023-05-06T02:09:53.848Z,100970.56
2023-05-06T02:12:21.488Z,100975.66
2023-05-06T02:14:49.141Z,100978.06
2023-05-06T02:17:16.852Z,100973.63
2023-05-06T02:19:44.495Z,100981.63
2023-05-06T02:22:13.501Z,100984.34
2023-05-06T02:24:41.213Z,100982.81
2023-05-06T02:27:08.879Z,100981.41
2023-05-06T02:29:36.535Z,100974.66
2023-05-06T02:32:04.348Z,100973.16
2023-05-06T02:34:32.070Z,100970.28
2023-05-06T02:36:59.776Z,100970.53
2023-05-06T02:39:28.826Z,100973.50
2023-05-06T02:41:56.540Z,100970.59
2023-05-06T02:44:24.202Z,100966.50
2023-05-06T02:46:52.024Z,100965.31
2023-05-06T02:49:19.671Z,100960.88
2023-05-06T02:51:47.378Z,100962.94
2023-05-06T02:54:15.084Z,100954.59
2023-05-06T02:56:46.209Z,100967.22
2023-05-06T02:59:14.389Z,100957.03
2023-05-06T03:01:42.062Z,100951.19
2023-05-06T03:04:09.794Z,100959.03
2023-05-06T03:06:37.505Z,100968.34
2023-05-06T03:09:05.936Z,100968.84
2023-05-06T03:11:33.648Z,100969.63
2023-05-06T03:14:02.735Z,100969.63
2023-05-06T03:16:30.510Z,100972.31
2023-05-06T03:18:58.549Z,100977.75
2023-05-06T03:21:26.214Z,100972.97
2023-05-06T03:23:53.936Z,100972.78
2023-05-06T03:26:22.214Z,100973.94
2023-05-06T03:28:50.213Z,100977.19
2023-05-06T03:31:19.297Z,100978.66
2023-05-06T03:33:47.041Z,100973.44
2023-05-06T03:36:15.062Z,100956.13
2023-05-06T03:38:42.815Z,100957.06
2023-05-06T03:41:10.543Z,100962.88
2023-05-06T03:43:38.417Z,100969.69
2023-05-06T03:46:06.085Z,100965.25
2023-05-06T03:48:35.187Z,100973.25
2023-05-06T03:51:03.118Z,100980.06
2023-05-06T03:53:30.890Z,100966.75
2023-05-06T03:55:58.536Z,100975.53
2023-05-06T03:58:26.348Z,100973.84
2023-05-06T04:00:54.011Z,100977.69
2023-05-06T04:03:21.787Z,100977.69
2023-05-06T04:05:51.602Z,100975.91
2023-05-06T04:08:19.333Z,100979.78
2023-05-06T04:10:47.132Z,100981.47
2023-05-06T04:13:15.018Z,100978.72
2023-05-06T04:15:43.509Z,100987.75
2023-05-06T04:18:11.321Z,100990.25
2023-05-06T04:20:38.980Z,100983.00
2023-05-06T04:23:08.169Z,100981.78
2023-05-06T04:25:35.895Z,100976.66
2023-05-06T04:28:03.576Z,100979.91
2023-05-06T04:30:31.233Z,100992.50
2023-05-06T04:32:58.891Z,100999.81
2023-05-06T04:35:27.020Z,100998.50
2023-05-06T04:37:54.746Z,100993.78
2023-05-06T04:40:26.365Z,100992.56
2023-05-06T04:42:54.103Z,100997.78
2023-05-06T04:45:22.273Z,101003.38
2023-05-06T04:47:50.029Z,101001.84
2023-05-06T04:50:17.985Z,101001.38
2023-05-06T04:52:45.724Z,101002.50
2023-05-06T04:55:13.565Z,101006.38
2023-05-06T04:57:42.574Z,101007.97
2023-05-06T05:00:11.270Z,101009.28
2023-05-06T05:02:39.244Z,101006.19
2023-05-06T05:05:08.006Z,101009.19
2023-05-06T05:07:35.792Z,101015.97
2023-05-06T05:10:03.546Z,101008.75
2023-05-06T05:12:31.656Z,101015.34
2023-05-06T05:15:00.702Z,101022.59
2023-05-06T05:17:28.354Z,101018.56
2023-05-06T05:19:56.168Z,101012.28
2023-05-06T05:22:23.878Z,101017.78
2023-05-06T05:24:51.649Z,101028.81
2023-05-06T05:27:19.505Z,101033.38
2023-05-06T05:29:47.160Z,101034.44
2023-05-06T05:32:16.207Z,101025.38
2023-05-06T05:34:43.943Z,101025.56
2023-05-06T05:37:11.597Z,101022.47
2023-05-06T05:39:39.353Z,101019.84
2023-05-06T05:42:07.094Z,101023.25
2023-05-06T05:44:34.817Z,101031.59
2023-05-06T05:47:03.469Z,101028.22
2023-05-06T05:49:32.540Z,101029.94
2023-05-06T05:52:00.328Z,101023.63
2023-05-06T05:54:28.043Z,101021.03
2023-05-06T05:56:55.744Z,101025.97
2023-05-06T05:59:23.468Z,101028.88
2023-05-06T06:01:51.120Z,101017.94
2023-05-06T06:04:18.892Z,101022.19
2023-05-06T06:06:47.952Z,101012.78
2023-05-06T06:09:16.692Z,101013.28
2023-05-06T06:11:44.436Z,101026.09
2023-05-06T06:14:12.240Z,101019.50
2023-05-06T06:16:40.046Z,101019.72
2023-05-06T06:19:07.774Z,101021.91
2023-05-06T06:21:35.904Z,101023.72
2023-05-06T06:24:05.778Z,101016.50
2023-05-06T06:26:33.500Z,101025.00
2023-05-06T06:29:01.210Z,101023.69
2023-05-06T06:31:29.229Z,101029.81
2023-05-06T06:33:57.087Z,101027.25
2023-05-06T06:36:24.815Z,101022.72
2023-05-06T06:38:52.468Z,101027.78
2023-05-06T06:41:21.491Z,101015.28
2023-05-06T06:43:49.204Z,101018.56
2023-05-06T06:46:17.069Z,101011.78
2023-05-06T06:48:44.807Z,101013.09
2023-05-06T06:51:12.516Z,101013.72
2023-05-06T06:53:40.244Z,101003.66
2023-05-06T06:56:11.012Z,101011.38
2023-05-06T06:58:40.061Z,101013.66
2023-05-06T07:01:07.809Z,101011.00
2023-05-06T07:03:35.538Z,101013.78
2023-05-06T07:06:03.249Z,101023.28
2023-05-06T07:08:31.053Z,101023.09
2023-05-06T07:10:58.732Z,101018.97
2023-05-06T07:13:26.534Z,101017.97
2023-05-06T07:15:55.683Z,101020.13
2023-05-06T07:18:23.431Z,101018.75
2023-05-06T07:20:51.202Z,101026.38
2023-05-06T07:23:18.973Z,101033.50
2023-05-06T07:25:46.692Z,101028.69
2023-05-06T07:28:14.448Z,101041.13
2023-05-06T07:30:42.271Z,101044.44
2023-05-06T07:33:11.416Z,101042.91
2023-05-06T07:35:39.162Z,101042.00
2023-05-06T07:38:06.802Z,101043.06
2023-05-06T07:40:34.620Z,101036.06
2023-05-06T07:43:03.503Z,101044.75
2023-05-06T07:45:31.307Z,101029.19
2023-05-06T07:47:59.107Z,101046.25
2023-05-06T07:50:28.287Z,101041.84
2023-05-06T07:52:55.959Z,101044.75
2023-05-06T07:55:24.087Z,101044.72
2023-05-06T07:57:51.856Z,101041.59
2023-05-06T08:00:19.714Z,101044.13
2023-05-06T08:02:48.570Z,101042.75
2023-05-06T08:05:17.350Z,101035.38
2023-05-06T08:07:47.326Z,101046.88
2023-05-06T08:10:15.580Z,101043.53
2023-05-06T08:12:43.256Z,101049.94
2023-05-06T08:15:12.306Z,101042.16
2023-05-06T08:17:40.398Z,101043.25
2023-05-06T08:20:09.133Z,101046.44
2023-05-06T08:22:36.954Z,101043.06
2023-05-06T08:25:06.750Z,101049.31
2023-05-06T08:27:34.418Z,101037.94
2023-05-06T08:30:02.106Z,101032.25
2023-05-06T08:32:29.890Z,101034.56
2023-05-06T08:34:57.598Z,101031.94
2023-05-06T08:37:25.330Z,101033.91
2023-05-06T08:39:53.020Z,101034.28
2023-05-06T08:42:23.210Z,101035.84
2023-05-06T08:44:52.549Z,101036.28
2023-05-06T08:47:20.599Z,101040.53
2023-05-06T08:49:48.343Z,101046.81
2023-05-06T08:52:16.254Z,101044.34
2023-05-06T08:54:43.956Z,101031.19
2023-05-06T08:57:13.030Z,101046.41
2023-05-06T08:59:42.691Z,101047.25
2023-05-06T09:02:11.220Z,101052.53
2023-05-06T09:04:38.989Z,101052.84
2023-05-06T09:07:06.675Z,101028.69
2023-05-06T09:09:34.328Z,101051.97
2023-05-06T09:12:02.845Z,101060.50
2023-05-06T09:14:30.594Z,101053.13
2023-05-06T09:17:00.086Z,101054.75
2023-05-06T09:19:28.565Z,101052.91
2023-05-06T09:21:56.737Z,101045.59
2023-05-06T09:24:25.097Z,101054.59
2023-05-06T09:26:55.166Z,101048.63
2023-05-06T09:29:22.950Z,101053.28
2023-05-06T09:31:52.688Z,101055.53
2023-05-06T09:34:22.753Z,101043.84
2023-05-06T09:36:50.618Z,101048.25
2023-05-06T09:39:18.286Z,101055.47
2023-05-06T09:41:46.013Z,101056.56
2023-05-06T09:44:13.985Z,101047.84
2023-05-06T09:46:42.220Z,101051.22
2023-05-06T09:49:10.276Z,101048.13
2023-05-06T09:51:39.535Z,101043.25
2023-05-06T09:54:07.418Z,101038.53
2023-05-06T09:56:35.550Z,101032.63
2023-05-06T09:59:04.202Z,101030.13
2023-05-06T10:01:36.720Z,101027.91
2023-05-06T10:04:07.447Z,101025.91
2023-05-06T10:06:39.418Z,101033.28
2023-05-06T10:09:09.197Z,101022.66
2023-05-06T10:11:37.357Z,101037.56
2023-05-06T10:14:05.862Z,101022.88
2023-05-06T10:16:35.836Z,101014.03
2023-05-06T10:19:04.792Z,101021.75
2023-05-06T10:21:34.226Z,101019.00
2023-05-06T10:24:07.076Z,101015.03
2023-05-06T10:26:38.011Z,101014.63
2023-05-06T10:29:06.342Z,101008.03
2023-05-06T10:31:34.728Z,101007.38
2023-05-06T10:34:04.140Z,101005.00
2023-05-06T10:36:36.230Z,101001.31
2023-05-06T10:39:04.688Z,100998.91
2023-05-06T10:41:33.414Z,100997.72
2023-05-06T10:44:02.491Z,101000.41
2023-05-06T10:46:31.096Z,100995.47
2023-05-06T10:49:18.331Z,100996.53
2023-05-06T10:51:47.991Z,101001.88
2023-05-06T10:54:25.380Z,100992.63
2023-05-06T10:57:11.929Z,101001.44
2023-05-06T10:59:46.581Z,101000.13
2023-05-06T11:02:14.991Z,101001.97
2023-05-06T11:04:42.755Z,101002.00
2023-05-06T11:07:12.160Z,100999.63
2023-05-06T11:09:56.382Z,101000.59
2023-05-06T11:12:24.900Z,100996.75
2023-05-06T11:14:53.964Z,100994.19
2023-05-06T11:17:32.863Z,101005.25
2023-05-06T11:20:20.690Z,101003.31
2023-05-06T11:22:48.449Z,100998.75
2023-05-06T11:25:16.230Z,100994.22
2023-05-06T11:27:43.957Z,100989.75
2023-05-06T11:30:17.201Z,100997.72
2023-05-06T11:32:44.953Z,100982.84
2023-05-06T11:35:13.089Z,100983.63
2023-05-06T11:37:43.560Z,100989.69
2023-05-06T11:40:20.136Z,100995.81
2023-05-06T11:42:47.830Z,100993.84
2023-05-06T11:45:17.009Z,100990.66
2023-05-06T11:47:45.596Z,100992.16
2023-05-06T11:50:13.355Z,100996.41
2023-05-06T11:52:41.228Z,100982.00
2023-05-06T11:55:10.877Z,100982.94
2023-05-06T11:57:44.746Z,100975.94
2023-05-06T12:00:14.367Z,100979.34
2023-05-06T12:02:43.484Z,100979.19
2023-05-06T12:05:12.196Z,100980.81
2023-05-06T12:07:42.930Z,100975.56
2023-05-06T12:10:11.289Z,100983.78
2023-05-06T12:12:39.328Z,100990.22
2023-05-06T12:15:08.313Z,100998.94
2023-05-06T12:17:36.479Z,100996.44
2023-05-06T12:20:06.854Z,100997.13
2023-05-06T12:22:34.517Z,100989.16
2023-05-06T12:25:14.400Z,100990.66
2023-05-06T12:27:42.098Z,100982.78
2023-05-06T12:30:11.422Z,100985.56
2023-05-06T12:32:57.532Z,100983.78
2023-05-06T12:35:31.449Z,100997.19
2023-05-06T12:38:09.162Z,100990.00
2023-05-06T12:40:37.063Z,100994.44
2023-05-06T12:43:04.927Z,100989.63
2023-05-06T12:45:32.742Z,100996.50
2023-05-06T12:48:02.690Z,100996.41
2023-05-06T12:50:35.988Z,100986.72
2023-05-06T12:53:04.305Z,100987.00
2023-05-06T12:55:32.459Z,100994.66
2023-05-06T12:58:00.636Z,101008.94
2023-05-06T13:00:28.340Z,101005.72
2023-05-06T13:02:56.065Z,101009.00
2023-05-06T13:05:24.182Z,101024.19
2023-05-06T13:07:53.993Z,101015.41
2023-05-06T13:10:21.760Z,101010.84
2023-05-06T13:12:49.538Z,101005.28
2023-05-06T13:15:17.359Z,101014.22
2023-05-06T13:17:45.063Z,101027.75
2023-05-06T13:20:14.184Z,101026.91
2023-05-06T13:22:53.650Z,101019.44
2023-05-06T13:25:24.210Z,101002.88
2023-05-06T13:27:51.869Z,101002.16
2023-05-06T13:30:19.508Z,101016.56
2023-05-06T13:32:48.028Z,100994.66
2023-05-06T13:35:15.854Z,101005.59
2023-05-06T13:37:43.516Z,101003.50
2023-05-06T13:40:12.946Z,100984.69
2023-05-06T13:42:42.252Z,100990.72
2023-05-06T13:45:11.314Z,100988.91
2023-05-06T13:47:39.114Z,100986.19
2023-05-06T13:50:08.212Z,101000.50
2023-05-06T13:52:36.076Z,101004.84
2023-05-06T13:55:03.809Z,101007.94
2023-05-06T13:57:31.460Z,100999.50
2023-05-06T14:00:00.650Z,100996.81
2023-05-06T14:02:28.416Z,100981.34
2023-05-06T14:04:56.160Z,100996.34
2023-05-06T14:07:23.877Z,101000.94
2023-05-06T14:09:51.521Z,100999.06
2023-05-06T14:12:19.204Z,100987.91
2023-05-06T14:14:46.905Z,100988.50
2023-05-06T14:17:16.120Z,100981.47
2023-05-06T14:19:43.844Z,100991.56
2023-05-06T14:22:11.502Z,100995.94
2023-05-06T14:24:39.150Z,100984.09
2023-05-06T14:27:06.924Z,100994.09
2023-05-06T14:29:34.597Z,100988.28
2023-05-06T14:32:02.306Z,100973.63
2023-05-06T14:34:31.750Z,100975.22
2023-05-06T14:36:59.482Z,100988.06
2023-05-06T14:39:27.216Z,100983.19
2023-05-06T14:41:55.000Z,100987.13
2023-05-06T14:44:22.979Z,100982.63
2023-05-06T14:46:50.916Z,100980.88
2023-05-06T14:49:18.610Z,100969.22
2023-05-06T14:51:49.843Z,100964.28
2023-05-06T14:54:17.613Z,100959.41
2023-05-06T14:56:46.833Z,100962.19
2023-05-06T14:59:14.547Z,100970.72
2023-05-06T15:01:42.305Z,100944.22
2023-05-06T15:04:10.516Z,100945.94
2023-05-06T15:06:38.308Z,100940.97
2023-05-06T15:09:07.415Z,100948.56
2023-05-06T15:11:35.597Z,100950.84
2023-05-06T15:14:03.416Z,100943.75
2023-05-06T15:16:31.085Z,100942.81
2023-05-06T15:18:58.834Z,100949.69
2023-05-06T15:21:27.544Z,100960.13
2023-05-06T15:23:56.157Z,100955.59
2023-05-06T15:26:25.223Z,100950.44
2023-05-06T15:28:52.952Z,100953.91
2023-05-06T15:31:20.650Z,100960.66
2023-05-06T15:33:48.315Z,100957.25
2023-05-06T15:36:15.996Z,100951.25
2023-05-06T15:38:59.894Z,100949.44
2023-05-06T15:41:30.565Z,100948.59
2023-05-06T15:43:59.517Z,100935.88
2023-05-06T15:46:27.529Z,100932.69
2023-05-06T15:49:15.698Z,100944.50
2023-05-06T15:51:43.359Z,100941.34
2023-05-06T15:54:11.105Z,100953.25
2023-05-06T15:56:41.536Z,100952.81
2023-05-06T15:59:09.398Z,100950.28
2023-05-06T16:02:19.056Z,100954.78
2023-05-06T16:04:25.931Z,100959.47
2023-05-06T16:06:53.908Z,100959.56
2023-05-06T16:09:21.674Z,100953.44
2023-05-06T16:11:50.756Z,100958.38
2023-05-06T16:14:18.462Z,100949.66
2023-05-06T16:16:46.267Z,100942.81
2023-05-06T16:19:13.995Z,100951.50
2023-05-06T16:21:41.709Z,100962.13
2023-05-06T16:24:09.614Z,100947.41
2023-05-06T16:26:37.701Z,100960.06
2023-05-06T16:29:06.809Z,100948.13
2023-05-06T16:31:35.052Z,100955.38
2023-05-06T16:34:02.834Z,100957.22
2023-05-06T16:36:30.583Z,100952.91
2023-05-06T16:38:58.248Z,100951.38
2023-05-06T16:41:26.029Z,100961.22
2023-05-06T16:43:53.698Z,100948.03
2023-05-06T16:46:24.409Z,100958.03
2023-05-06T16:48:52.537Z,100957.28
2023-05-06T16:51:20.327Z,100948.41
2023-05-06T16:53:48.084Z,100941.97
2023-05-06T16:56:15.755Z,100949.41
2023-05-06T16:58:43.500Z,100939.00
2023-05-06T17:01:11.773Z,100943.13
2023-05-06T17:03:40.973Z,100928.09
2023-05-06T17:06:08.837Z,100939.00
2023-05-06T17:08:37.167Z,100939.69
2023-05-06T17:11:07.074Z,100935.88
2023-05-06T17:13:34.835Z,100933.03
2023-05-06T17:16:02.580Z,100926.13
2023-05-06T17:18:30.274Z,100928.19
2023-05-06T17:20:59.733Z,100942.31
2023-05-06T17:23:27.417Z,100940.22
2023-05-06T17:25:56.985Z,100941.09
2023-05-06T17:28:24.844Z,100948.56
2023-05-06T17:30:52.543Z,100942.38
2023-05-06T17:33:20.269Z,100943.31
2023-05-06T17:35:48.001Z,100941.69
2023-05-06T17:38:17.419Z,100938.97
2023-05-06T17:40:45.115Z,100938.09
2023-05-06T17:43:12.795Z,100939.13
2023-05-06T17:45:41.510Z,100949.88
2023-05-06T17:48:09.435Z,100941.25
2023-05-06T17:50:37.120Z,100930.03
2023-05-06T17:53:04.834Z,100938.22
2023-05-06T17:55:33.862Z,100929.69
2023-05-06T17:58:01.577Z,100946.78
2023-05-06T18:00:29.263Z,100945.09
2023-05-06T18:02:57.671Z,100935.59
2023-05-06T18:05:26.261Z,100931.94
2023-05-06T18:07:53.980Z,100938.38
2023-05-06T18:10:21.742Z,100940.19
2023-05-06T18:12:50.922Z,100931.22
2023-05-06T18:15:18.755Z,100943.56
2023-05-06T18:17:46.905Z,100945.09
2023-05-06T18:20:14.776Z,100934.53
2023-05-06T18:22:42.946Z,100943.97
2023-05-06T18:25:11.689Z,100936.03
2023-05-06T18:27:39.630Z,100934.88
2023-05-06T18:30:09.518Z,100936.66
2023-05-06T18:32:37.404Z,100943.84
2023-05-06T18:35:05.517Z,100945.28
2023-05-06T18:37:33.240Z,100948.16
2023-05-06T18:40:00.886Z,100954.28
2023-05-06T18:42:28.691Z,100960.41
2023-05-06T18:44:56.504Z,100935.22
2023-05-06T18:47:26.351Z,100936.19
2023-05-06T18:49:54.064Z,100947.31
2023-05-06T18:52:21.743Z,100926.81
2023-05-06T18:54:49.374Z,100950.84
2023-05-06T18:57:17.267Z,100943.47
2023-05-06T18:59:44.995Z,100950.97
2023-05-06T19:02:12.644Z,100943.31
2023-05-06T19:04:41.689Z,100951.00
2023-05-06T19:07:10.188Z,100947.28
2023-05-06T19:09:38.054Z,100953.72
2023-05-06T19:12:05.859Z,100953.00
2023-05-06T19:14:34.593Z,100950.59
2023-05-06T19:17:02.433Z,100959.31
2023-05-06T19:19:30.313Z,100964.13
2023-05-06T19:22:01.750Z,100967.88
2023-05-06T19:24:30.762Z,100964.03
2023-05-06T19:26:58.495Z,100972.56
2023-05-06T19:29:26.278Z,100965.13
2023-05-06T19:31:54.523Z,100968.53
2023-05-06T19:34:22.200Z,100964.91
2023-05-06T19:36:49.844Z,100971.41
2023-05-06T19:39:18.909Z,100963.19
2023-05-06T19:41:47.304Z,100971.41
2023-05-06T19:44:15.095Z,100975.66
2023-05-06T19:46:42.933Z,100976.16
2023-05-06T19:49:10.753Z,100971.19
2023-05-06T19:51:38.531Z,100985.13
2023-05-06T19:54:06.560Z,100969.41
2023-05-06T19:56:35.648Z,100966.97
2023-05-06T19:59:03.288Z,100975.31
2023-05-06T20:01:30.937Z,100963.94
2023-05-06T20:03:58.785Z,100980.88
2023-05-06T20:06:26.607Z,100985.00
2023-05-06T20:08:54.324Z,100977.63
2023-05-06T20:11:22.400Z,100973.16
2023-05-06T20:13:51.606Z,100992.88
2023-05-06T20:16:19.419Z,100984.78
2023-05-06T20:18:47.681Z,101002.94
2023-05-06T20:21:16.732Z,101003.66
2023-05-06T20:23:44.367Z,101035.84
2023-05-06T20:26:12.141Z,101030.84
2023-05-06T20:28:39.855Z,101029.34
2023-05-06T20:31:08.999Z,101038.22
2023-05-06T20:33:36.756Z,101032.66
2023-05-06T20:36:05.034Z,101030.38
2023-05-06T20:38:32.786Z,101028.09
2023-05-06T20:41:02.820Z,101029.88
2023-05-06T20:43:30.630Z,101017.16
2023-05-06T20:45:58.366Z,101028.56
2023-05-06T20:48:27.695Z,101030.84
2023-05-06T20:50:57.050Z,101043.53
2023-05-06T20:53:24.892Z,101044.94
2023-05-06T20:55:52.980Z,101047.81
2023-05-06T20:58:21.087Z,101038.09
2023-05-06T21:00:49.985Z,101037.97
2023-05-06T21:03:17.765Z,101039.16
2023-05-06T21:05:47.105Z,101034.41
2023-05-06T21:08:15.850Z,101042.34
2023-05-06T21:10:43.561Z,101038.50
2023-05-06T21:13:11.245Z,101033.34
2023-05-06T21:15:39.447Z,101038.50
2023-05-06T21:18:07.319Z,101035.69
2023-05-06T21:20:35.101Z,101037.53
2023-05-06T21:23:04.402Z,101034.31
2023-05-06T21:25:32.098Z,101030.97
2023-05-06T21:28:03.251Z,101028.81
2023-05-06T21:30:31.010Z,101022.97
2023-05-06T21:32:58.888Z,101020.63
2023-05-06T21:35:26.560Z,101022.19
2023-05-06T21:37:54.263Z,101032.72
2023-05-06T21:40:23.370Z,101025.41
2023-05-06T21:42:51.217Z,101031.47
2023-05-06T21:45:18.976Z,101029.72
2023-05-06T21:47:46.770Z,101033.84
2023-05-06T21:50:14.784Z,101029.47
2023-05-06T21:52:42.712Z,101032.63
2023-05-06T21:55:11.400Z,101031.38
2023-05-06T21:57:40.755Z,101031.25
2023-05-06T22:00:12.253Z,101027.06
2023-05-06T22:02:40.745Z,101029.53
2023-05-06T22:05:09.395Z,101025.41
2023-05-06T22:07:37.322Z,101014.41
2023-05-06T22:10:06.183Z,101022.53
2023-05-06T22:12:33.927Z,101022.16
2023-05-06T22:15:03.184Z,101029.31
2023-05-06T22:17:32.636Z,101024.59
2023-05-06T22:20:02.409Z,101031.75
2023-05-06T22:22:30.705Z,101017.44
2023-05-06T22:24:58.654Z,101018.16
2023-05-06T22:27:26.333Z,101016.00
2023-05-06T22:29:54.034Z,101019.16
2023-05-06T22:32:23.093Z,101020.84
2023-05-06T22:34:50.755Z,101008.50
2023-05-06T22:37:18.398Z,101011.66
2023-05-06T22:39:47.432Z,101021.81
2023-05-06T22:42:15.071Z,101010.88
2023-05-06T22:44:43.933Z,101009.91
2023-05-06T22:47:11.681Z,101016.72
2023-05-06T22:49:40.759Z,101016.72
2023-05-06T22:52:08.484Z,101007.06
2023-05-06T22:54:36.190Z,101003.91
2023-05-06T22:57:03.905Z,101013.13
2023-05-06T22:59:31.642Z,101008.50
2023-05-06T23:01:59.364Z,101012.16
2023-05-06T23:04:27.011Z,101009.00
2023-05-06T23:06:57.448Z,101001.84
2023-05-06T23:09:25.156Z,101005.50
2023-05-06T23:11:52.809Z,100997.25
2023-05-06T23:14:20.601Z,101000.19
2023-05-06T23:16:48.348Z,101010.09
2023-05-06T23:19:16.004Z,101007.66
2023-05-06T23:21:43.963Z,101012.41
2023-05-06T23:24:13.111Z,101010.34
2023-05-06T23:26:41.142Z,101007.06
2023-05-06T23:29:08.841Z,101000.28
2023-05-06T23:31:36.603Z,100997.56
2023-05-06T23:34:04.492Z,100991.75
2023-05-06T23:36:32.247Z,100999.75
2023-05-06T23:38:59.950Z,100999.06
2023-05-06T23:41:28.970Z,101004.88
2023-05-06T23:43:56.822Z,101003.56
2023-05-06T23:46:24.630Z,101011.91
2023-05-06T23:48:52.309Z,101009.47
2023-05-06T23:51:20.412Z,101006.81
2023-05-06T23:53:48.110Z,101011.66
2023-05-06T23:56:16.293Z,101001.69
2023-05-06T23:58:45.305Z,101001.06
